sensor_id;sensor_type;location;lat;lon;timestamp;pressure;altitude;pressure_sealevel;temperature;humidity
9335;BME280;4706;41.844;26.082;2023-02-18T00:00:07;101650.53;;;8.27;60.56
9335;BME280;4706;41.844;26.082;2023-02-18T00:02:34;101649.50;;;8.33;59.98
9335;BME280;4706;41.844;26.082;2023-02-18T00:04:59;101638.19;;;8.24;60.22
9335;BME280;4706;41.844;26.082;2023-02-18T00:07:25;101639.34;;;8.28;60.43
9335;BME280;4706;41.844;26.082;2023-02-18T00:09:50;101651.81;;;8.19;60.48
9335;BME280;4706;41.844;26.082;2023-02-18T00:12:16;101649.88;;;8.15;60.29
9335;BME280;4706;41.844;26.082;2023-02-18T00:14:42;101637.50;;;8.12;60.18
9335;BME280;4706;41.844;26.082;2023-02-18T00:17:07;101647.56;;;8.01;60.01
9335;BME280;4706;41.844;26.082;2023-02-18T00:19:33;101644.56;;;7.81;60.20
9335;BME280;4706;41.844;26.082;2023-02-18T00:21:58;101645.38;;;7.60;59.86
9335;BME280;4706;41.844;26.082;2023-02-18T00:24:24;101639.03;;;7.54;59.81
9335;BME280;4706;41.844;26.082;2023-02-18T00:26:51;101647.38;;;7.64;59.57
9335;BME280;4706;41.844;26.082;2023-02-18T00:29:18;101647.84;;;7.56;60.11
9335;BME280;4706;41.844;26.082;2023-02-18T00:31:44;101643.22;;;7.40;60.21
9335;BME280;4706;41.844;26.082;2023-02-18T00:34:11;101636.44;;;7.25;59.86
9335;BME280;4706;41.844;26.082;2023-02-18T00:36:38;101635.44;;;7.32;59.95
9335;BME280;4706;41.844;26.082;2023-02-18T00:39:06;101635.63;;;7.25;59.67
9335;BME280;4706;41.844;26.082;2023-02-18T00:41:33;101632.25;;;7.18;60.10
9335;BME280;4706;41.844;26.082;2023-02-18T00:43:59;101618.81;;;7.16;60.55
9335;BME280;4706;41.844;26.082;2023-02-18T00:46:26;101615.81;;;7.18;60.06
9335;BME280;4706;41.844;26.082;2023-02-18T00:48:52;101616.16;;;7.21;59.66
9335;BME280;4706;41.844;26.082;2023-02-18T00:51:17;101612.69;;;7.26;59.71
9335;BME280;4706;41.844;26.082;2023-02-18T00:53:43;101609.28;;;7.19;60.53
9335;BME280;4706;41.844;26.082;2023-02-18T00:56:08;101605.00;;;7.06;61.13
9335;BME280;4706;41.844;26.082;2023-02-18T00:58:35;101602.34;;;7.11;61.21
9335;BME280;4706;41.844;26.082;2023-02-18T01:01:04;101597.53;;;7.01;61.50
9335;BME280;4706;41.844;26.082;2023-02-18T01:03:29;101602.41;;;7.16;60.69
9335;BME280;4706;41.844;26.082;2023-02-18T01:05:55;101593.59;;;7.14;60.43
9335;BME280;4706;41.844;26.082;2023-02-18T01:08:21;101592.47;;;7.10;60.49
9335;BME280;4706;41.844;26.082;2023-02-18T01:10:48;101585.94;;;7.11;61.04
9335;BME280;4706;41.844;26.082;2023-02-18T01:13:15;101577.13;;;7.09;60.83
9335;BME280;4706;41.844;26.082;2023-02-18T01:15:41;101574.56;;;7.02;60.94
9335;BME280;4706;41.844;26.082;2023-02-18T01:18:08;101566.31;;;6.97;61.42
9335;BME280;4706;41.844;26.082;2023-02-18T01:20:34;101555.66;;;6.79;60.92
9335;BME280;4706;41.844;26.082;2023-02-18T01:23:01;101564.34;;;6.93;60.78
9335;BME280;4706;41.844;26.082;2023-02-18T01:25:26;101550.00;;;6.86;61.15
9335;BME280;4706;41.844;26.082;2023-02-18T01:27:52;101547.66;;;6.94;61.38
9335;BME280;4706;41.844;26.082;2023-02-18T01:30:18;101552.31;;;6.94;60.72
9335;BME280;4706;41.844;26.082;2023-02-18T01:32:43;101547.84;;;6.88;61.58
9335;BME280;4706;41.844;26.082;2023-02-18T01:35:12;101541.47;;;6.82;62.02
9335;BME280;4706;41.844;26.082;2023-02-18T01:37:38;101522.00;;;6.78;62.43
9335;BME280;4706;41.844;26.082;2023-02-18T01:40:05;101543.34;;;6.98;62.65
9335;BME280;4706;41.844;26.082;2023-02-18T01:42:31;101543.41;;;6.81;63.85
9335;BME280;4706;41.844;26.082;2023-02-18T01:50:32;101526.50;;;6.85;64.22
9335;BME280;4706;41.844;26.082;2023-02-18T01:53:00;101520.38;;;6.77;64.13
9335;BME280;4706;41.844;26.082;2023-02-18T01:55:26;101517.97;;;6.81;64.39
9335;BME280;4706;41.844;26.082;2023-02-18T01:57:52;101511.38;;;6.60;64.71
9335;BME280;4706;41.844;26.082;2023-02-18T02:00:18;101515.25;;;6.64;64.51
9335;BME280;4706;41.844;26.082;2023-02-18T02:02:49;101511.53;;;6.70;64.36
9335;BME280;4706;41.844;26.082;2023-02-18T02:05:16;101503.97;;;6.77;64.38
9335;BME280;4706;41.844;26.082;2023-02-18T02:07:42;101501.72;;;6.74;64.32
9335;BME280;4706;41.844;26.082;2023-02-18T02:10:11;101491.63;;;6.75;62.83
9335;BME280;4706;41.844;26.082;2023-02-18T02:15:43;101501.88;;;6.85;62.23
9335;BME280;4706;41.844;26.082;2023-02-18T02:26:58;101501.03;;;6.62;60.65
9335;BME280;4706;41.844;26.082;2023-02-18T02:43:13;101495.50;;;6.40;61.03
9335;BME280;4706;41.844;26.082;2023-02-18T02:45:54;101499.94;;;6.46;60.89
9335;BME280;4706;41.844;26.082;2023-02-18T02:48:31;101506.94;;;6.37;61.56
9335;BME280;4706;41.844;26.082;2023-02-18T02:51:09;101492.28;;;6.26;61.52
9335;BME280;4706;41.844;26.082;2023-02-18T02:53:36;101492.69;;;6.18;61.95
9335;BME280;4706;41.844;26.082;2023-02-18T02:56:04;101498.91;;;6.14;61.68
9335;BME280;4706;41.844;26.082;2023-02-18T02:58:29;101490.63;;;6.25;62.56
9335;BME280;4706;41.844;26.082;2023-02-18T03:01:27;101514.84;;;6.39;62.21
9335;BME280;4706;41.844;26.082;2023-02-18T03:04:26;101522.00;;;6.23;61.51
9335;BME280;4706;41.844;26.082;2023-02-18T03:12:18;101518.09;;;6.19;60.97
9335;BME280;4706;41.844;26.082;2023-02-18T03:17:29;101541.03;;;6.18;62.29
9335;BME280;4706;41.844;26.082;2023-02-18T03:20:18;101539.69;;;6.03;62.59
9335;BME280;4706;41.844;26.082;2023-02-18T03:22:50;101532.59;;;6.02;62.58
9335;BME280;4706;41.844;26.082;2023-02-18T03:25:17;101535.81;;;5.99;61.83
9335;BME280;4706;41.844;26.082;2023-02-18T03:27:48;101497.09;;;5.74;62.09
9335;BME280;4706;41.844;26.082;2023-02-18T03:30:21;101525.03;;;5.93;61.71
9335;BME280;4706;41.844;26.082;2023-02-18T03:32:48;101525.88;;;6.10;62.26
9335;BME280;4706;41.844;26.082;2023-02-18T03:35:17;101537.22;;;6.19;63.21
9335;BME280;4706;41.844;26.082;2023-02-18T03:37:53;101524.53;;;6.13;63.11
9335;BME280;4706;41.844;26.082;2023-02-18T03:40:26;101543.25;;;6.04;61.90
9335;BME280;4706;41.844;26.082;2023-02-18T03:42:53;101525.41;;;5.84;61.56
9335;BME280;4706;41.844;26.082;2023-02-18T03:45:18;101530.94;;;5.73;61.07
9335;BME280;4706;41.844;26.082;2023-02-18T03:47:44;101523.75;;;5.83;60.12
9335;BME280;4706;41.844;26.082;2023-02-18T03:50:10;101529.66;;;5.64;61.85
9335;BME280;4706;41.844;26.082;2023-02-18T03:52:35;101521.84;;;5.84;60.94
9335;BME280;4706;41.844;26.082;2023-02-18T03:55:04;101520.34;;;5.76;61.12
9335;BME280;4706;41.844;26.082;2023-02-18T03:57:30;101527.09;;;5.57;61.75
9335;BME280;4706;41.844;26.082;2023-02-18T03:59:56;101525.50;;;5.32;63.04
9335;BME280;4706;41.844;26.082;2023-02-18T04:02:21;101520.66;;;5.34;63.13
9335;BME280;4706;41.844;26.082;2023-02-18T04:04:47;101526.47;;;5.38;64.14
9335;BME280;4706;41.844;26.082;2023-02-18T04:07:12;101526.06;;;5.46;65.10
9335;BME280;4706;41.844;26.082;2023-02-18T04:09:38;101539.06;;;5.27;66.69
9335;BME280;4706;41.844;26.082;2023-02-18T04:12:03;101537.06;;;5.11;67.77
9335;BME280;4706;41.844;26.082;2023-02-18T04:14:29;101533.41;;;5.05;68.04
9335;BME280;4706;41.844;26.082;2023-02-18T04:16:54;101535.69;;;4.97;68.29
9335;BME280;4706;41.844;26.082;2023-02-18T04:19:20;101529.28;;;4.91;68.34
9335;BME280;4706;41.844;26.082;2023-02-18T04:21:45;101535.22;;;4.88;68.19
9335;BME280;4706;41.844;26.082;2023-02-18T04:24:11;101528.84;;;4.82;68.11
9335;BME280;4706;41.844;26.082;2023-02-18T04:26:36;101536.16;;;4.94;68.19
9335;BME280;4706;41.844;26.082;2023-02-18T04:29:02;101533.66;;;5.04;66.78
9335;BME280;4706;41.844;26.082;2023-02-18T04:31:27;101544.34;;;4.94;67.60
9335;BME280;4706;41.844;26.082;2023-02-18T04:33:53;101538.78;;;4.88;68.06
9335;BME280;4706;41.844;26.082;2023-02-18T04:36:18;101534.50;;;4.93;68.04
9335;BME280;4706;41.844;26.082;2023-02-18T04:38:44;101541.59;;;5.05;66.97
9335;BME280;4706;41.844;26.082;2023-02-18T04:41:09;101550.66;;;5.34;66.29
9335;BME280;4706;41.844;26.082;2023-02-18T04:43:37;101546.81;;;5.07;67.44
9335;BME280;4706;41.844;26.082;2023-02-18T04:46:02;101547.06;;;5.05;67.48
9335;BME280;4706;41.844;26.082;2023-02-18T04:48:28;101545.50;;;5.09;67.21
9335;BME280;4706;41.844;26.082;2023-02-18T04:50:54;101543.69;;;5.27;66.48
9335;BME280;4706;41.844;26.082;2023-02-18T04:53:19;101553.19;;;5.24;66.49
9335;BME280;4706;41.844;26.082;2023-02-18T04:55:51;101538.91;;;4.94;67.34
9335;BME280;4706;41.844;26.082;2023-02-18T04:58:18;101553.44;;;5.11;66.77
9335;BME280;4706;41.844;26.082;2023-02-18T05:00:44;101546.94;;;5.12;66.58
9335;BME280;4706;41.844;26.082;2023-02-18T05:03:10;101553.56;;;5.16;65.63
9335;BME280;4706;41.844;26.082;2023-02-18T05:05:36;101556.97;;;5.23;65.69
9335;BME280;4706;41.844;26.082;2023-02-18T05:08:02;101558.28;;;5.21;65.29
9335;BME280;4706;41.844;26.082;2023-02-18T05:10:28;101559.88;;;5.05;64.81
9335;BME280;4706;41.844;26.082;2023-02-18T05:12:53;101550.88;;;4.81;66.02
9335;BME280;4706;41.844;26.082;2023-02-18T05:15:19;101559.63;;;4.95;65.35
9335;BME280;4706;41.844;26.082;2023-02-18T05:17:44;101557.72;;;4.95;65.94
9335;BME280;4706;41.844;26.082;2023-02-18T05:20:11;101564.97;;;4.90;65.98
9335;BME280;4706;41.844;26.082;2023-02-18T05:22:37;101562.38;;;4.71;66.89
9335;BME280;4706;41.844;26.082;2023-02-18T05:25:03;101558.13;;;4.63;66.79
9335;BME280;4706;41.844;26.082;2023-02-18T05:27:29;101573.72;;;4.92;67.32
9335;BME280;4706;41.844;26.082;2023-02-18T05:29:55;101568.75;;;5.12;66.15
9335;BME280;4706;41.844;26.082;2023-02-18T05:32:20;101570.06;;;4.98;66.97
9335;BME280;4706;41.844;26.082;2023-02-18T05:34:46;101578.25;;;4.98;67.68
9335;BME280;4706;41.844;26.082;2023-02-18T05:37:12;101564.38;;;4.99;68.14
9335;BME280;4706;41.844;26.082;2023-02-18T05:39:39;101564.53;;;5.33;66.53
9335;BME280;4706;41.844;26.082;2023-02-18T05:42:05;101566.53;;;5.49;64.79
9335;BME280;4706;41.844;26.082;2023-02-18T05:44:30;101569.00;;;5.51;64.99
9335;BME280;4706;41.844;26.082;2023-02-18T05:47:15;101568.59;;;5.30;65.06
9335;BME280;4706;41.844;26.082;2023-02-18T05:49:42;101560.97;;;5.32;65.41
9335;BME280;4706;41.844;26.082;2023-02-18T05:52:08;101560.34;;;5.02;66.22
9335;BME280;4706;41.844;26.082;2023-02-18T05:54:35;101556.81;;;4.90;67.53
9335;BME280;4706;41.844;26.082;2023-02-18T05:57:01;101578.25;;;4.98;67.79
9335;BME280;4706;41.844;26.082;2023-02-18T05:59:27;101587.16;;;4.81;67.89
9335;BME280;4706;41.844;26.082;2023-02-18T06:01:53;101571.13;;;4.73;69.07
9335;BME280;4706;41.844;26.082;2023-02-18T06:04:19;101583.09;;;4.84;68.96
9335;BME280;4706;41.844;26.082;2023-02-18T06:06:44;101577.31;;;4.69;69.71
9335;BME280;4706;41.844;26.082;2023-02-18T06:09:11;101585.63;;;4.85;70.11
9335;BME280;4706;41.844;26.082;2023-02-18T06:11:36;101573.88;;;4.97;69.71
9335;BME280;4706;41.844;26.082;2023-02-18T06:14:02;101583.66;;;5.21;68.42
9335;BME280;4706;41.844;26.082;2023-02-18T06:16:28;101575.91;;;5.30;68.22
9335;BME280;4706;41.844;26.082;2023-02-18T06:18:54;101583.59;;;5.45;66.92
9335;BME280;4706;41.844;26.082;2023-02-18T06:21:19;101593.06;;;5.54;67.81
9335;BME280;4706;41.844;26.082;2023-02-18T06:23:45;101566.53;;;5.49;68.44
9335;BME280;4706;41.844;26.082;2023-02-18T06:26:10;101575.03;;;5.81;67.13
9335;BME280;4706;41.844;26.082;2023-02-18T06:28:36;101568.56;;;5.71;68.01
9335;BME280;4706;41.844;26.082;2023-02-18T06:31:02;101566.81;;;5.93;67.37
9335;BME280;4706;41.844;26.082;2023-02-18T06:33:27;101574.72;;;6.06;66.62
9335;BME280;4706;41.844;26.082;2023-02-18T06:36:05;101576.63;;;6.06;66.98
9335;BME280;4706;41.844;26.082;2023-02-18T06:38:32;101569.03;;;6.25;67.36
9335;BME280;4706;41.844;26.082;2023-02-18T06:40:58;101573.66;;;6.24;67.85
9335;BME280;4706;41.844;26.082;2023-02-18T06:43:24;101570.69;;;6.26;68.63
9335;BME280;4706;41.844;26.082;2023-02-18T06:45:50;101561.75;;;6.47;66.77
9335;BME280;4706;41.844;26.082;2023-02-18T06:48:16;101563.47;;;6.53;67.35
9335;BME280;4706;41.844;26.082;2023-02-18T06:50:41;101566.63;;;6.62;66.15
9335;BME280;4706;41.844;26.082;2023-02-18T06:53:07;101574.63;;;6.69;66.77
9335;BME280;4706;41.844;26.082;2023-02-18T06:55:32;101563.59;;;6.80;66.72
9335;BME280;4706;41.844;26.082;2023-02-18T06:57:58;101576.00;;;6.88;66.24
9335;BME280;4706;41.844;26.082;2023-02-18T07:00:23;101571.59;;;7.04;66.37
9335;BME280;4706;41.844;26.082;2023-02-18T07:02:49;101563.97;;;7.06;66.86
9335;BME280;4706;41.844;26.082;2023-02-18T07:05:15;101553.28;;;7.04;67.47
9335;BME280;4706;41.844;26.082;2023-02-18T07:07:40;101559.84;;;7.03;67.68
9335;BME280;4706;41.844;26.082;2023-02-18T07:10:07;101558.94;;;6.98;68.45
9335;BME280;4706;41.844;26.082;2023-02-18T07:12:33;101557.16;;;7.09;68.75
9335;BME280;4706;41.844;26.082;2023-02-18T07:14:58;101552.06;;;7.17;68.78
9335;BME280;4706;41.844;26.082;2023-02-18T07:17:24;101557.72;;;7.54;68.39
9335;BME280;4706;41.844;26.082;2023-02-18T07:19:49;101546.69;;;7.71;68.13
9335;BME280;4706;41.844;26.082;2023-02-18T07:22:15;101551.91;;;8.00;67.58
9335;BME280;4706;41.844;26.082;2023-02-18T07:24:41;101552.00;;;8.10;67.54
9335;BME280;4706;41.844;26.082;2023-02-18T07:27:06;101553.13;;;8.14;67.51
9335;BME280;4706;41.844;26.082;2023-02-18T07:29:32;101528.88;;;8.01;68.22
9335;BME280;4706;41.844;26.082;2023-02-18T07:31:57;101531.78;;;7.89;69.33
9335;BME280;4706;41.844;26.082;2023-02-18T07:34:23;101520.00;;;7.89;69.98
9335;BME280;4706;41.844;26.082;2023-02-18T07:36:48;101524.56;;;8.05;70.20
9335;BME280;4706;41.844;26.082;2023-02-18T07:39:14;101521.81;;;8.05;69.88
9335;BME280;4706;41.844;26.082;2023-02-18T07:41:40;101514.78;;;8.19;70.90
9335;BME280;4706;41.844;26.082;2023-02-18T07:44:05;101505.72;;;8.46;70.94
9335;BME280;4706;41.844;26.082;2023-02-18T07:46:31;101497.56;;;8.56;71.06
9335;BME280;4706;41.844;26.082;2023-02-18T07:48:57;101497.97;;;8.38;71.72
9335;BME280;4706;41.844;26.082;2023-02-18T07:51:22;101488.72;;;8.12;73.79
9335;BME280;4706;41.844;26.082;2023-02-18T07:53:49;101477.69;;;8.01;74.79
9335;BME280;4706;41.844;26.082;2023-02-18T07:56:15;101492.41;;;7.95;75.57
9335;BME280;4706;41.844;26.082;2023-02-18T07:58:40;101493.16;;;7.59;77.11
9335;BME280;4706;41.844;26.082;2023-02-18T08:01:08;101509.69;;;7.69;76.42
9335;BME280;4706;41.844;26.082;2023-02-18T08:03:35;101505.94;;;7.75;76.45
9335;BME280;4706;41.844;26.082;2023-02-18T08:06:02;101491.75;;;7.83;76.53
9335;BME280;4706;41.844;26.082;2023-02-18T08:08:29;101478.00;;;7.78;76.31
9335;BME280;4706;41.844;26.082;2023-02-18T08:10:57;101486.22;;;8.05;76.66
9335;BME280;4706;41.844;26.082;2023-02-18T08:13:26;101477.22;;;8.47;74.78
9335;BME280;4706;41.844;26.082;2023-02-18T08:15:54;101456.94;;;8.48;74.44
9335;BME280;4706;41.844;26.082;2023-02-18T08:18:21;101472.06;;;8.61;74.57
9335;BME280;4706;41.844;26.082;2023-02-18T08:20:48;101462.63;;;8.89;73.40
9335;BME280;4706;41.844;26.082;2023-02-18T08:23:15;101462.44;;;9.11;72.96
9335;BME280;4706;41.844;26.082;2023-02-18T08:25:45;101450.97;;;9.29;73.11
9335;BME280;4706;41.844;26.082;2023-02-18T08:28:11;101455.16;;;9.57;71.65
9335;BME280;4706;41.844;26.082;2023-02-18T08:30:43;101439.78;;;9.77;71.22
9335;BME280;4706;41.844;26.082;2023-02-18T08:33:08;101427.69;;;10.03;70.86
9335;BME280;4706;41.844;26.082;2023-02-18T08:35:33;101435.63;;;10.40;68.86
9335;BME280;4706;41.844;26.082;2023-02-18T08:37:59;101428.19;;;10.51;67.61
9335;BME280;4706;41.844;26.082;2023-02-18T08:40:24;101425.44;;;10.51;67.57
9335;BME280;4706;41.844;26.082;2023-02-18T08:42:50;101417.47;;;10.44;67.96
9335;BME280;4706;41.844;26.082;2023-02-18T08:45:15;101415.81;;;10.49;67.69
9335;BME280;4706;41.844;26.082;2023-02-18T08:47:41;101415.00;;;10.38;68.03
9335;BME280;4706;41.844;26.082;2023-02-18T08:50:07;101420.78;;;10.47;68.11
9335;BME280;4706;41.844;26.082;2023-02-18T08:52:32;101423.78;;;10.55;68.35
9335;BME280;4706;41.844;26.082;2023-02-18T08:54:58;101424.78;;;10.85;68.13
9335;BME280;4706;41.844;26.082;2023-02-18T08:57:23;101409.94;;;11.30;66.72
9335;BME280;4706;41.844;26.082;2023-02-18T08:59:49;101411.59;;;11.65;64.80
9335;BME280;4706;41.844;26.082;2023-02-18T09:02:14;101404.53;;;11.94;64.16
9335;BME280;4706;41.844;26.082;2023-02-18T09:04:40;101403.22;;;12.15;63.05
9335;BME280;4706;41.844;26.082;2023-02-18T09:07:05;101404.53;;;12.23;62.84
9335;BME280;4706;41.844;26.082;2023-02-18T09:09:31;101418.19;;;12.33;62.73
9335;BME280;4706;41.844;26.082;2023-02-18T09:11:56;101408.75;;;12.39;62.37
9335;BME280;4706;41.844;26.082;2023-02-18T09:14:22;101407.88;;;12.44;62.37
9335;BME280;4706;41.844;26.082;2023-02-18T09:16:48;101404.06;;;12.63;62.18
9335;BME280;4706;41.844;26.082;2023-02-18T09:19:15;101397.72;;;12.87;61.42
9335;BME280;4706;41.844;26.082;2023-02-18T09:21:41;101394.31;;;13.14;60.76
9335;BME280;4706;41.844;26.082;2023-02-18T09:24:06;101399.41;;;13.26;60.44
9335;BME280;4706;41.844;26.082;2023-02-18T09:26:32;101409.97;;;13.43;59.31
9335;BME280;4706;41.844;26.082;2023-02-18T09:28:57;101411.41;;;13.54;59.27
9335;BME280;4706;41.844;26.082;2023-02-18T09:31:25;101398.72;;;13.53;59.80
9335;BME280;4706;41.844;26.082;2023-02-18T09:33:53;101397.44;;;13.64;59.91
9335;BME280;4706;41.844;26.082;2023-02-18T09:36:19;101391.75;;;13.74;59.30
9335;BME280;4706;41.844;26.082;2023-02-18T09:38:45;101391.44;;;13.76;59.27
9335;BME280;4706;41.844;26.082;2023-02-18T09:41:27;101387.53;;;13.96;59.06
9335;BME280;4706;41.844;26.082;2023-02-18T09:44:21;101385.78;;;14.00;59.68
9335;BME280;4706;41.844;26.082;2023-02-18T09:46:54;101382.22;;;14.13;58.66
9335;BME280;4706;41.844;26.082;2023-02-18T09:49:24;101379.75;;;14.12;58.66
9335;BME280;4706;41.844;26.082;2023-02-18T09:51:52;101376.66;;;13.99;59.13
9335;BME280;4706;41.844;26.082;2023-02-18T09:54:19;101372.22;;;13.84;59.86
9335;BME280;4706;41.844;26.082;2023-02-18T09:56:45;101377.66;;;13.90;60.32
9335;BME280;4706;41.844;26.082;2023-02-18T09:59:18;101364.66;;;13.90;59.79
9335;BME280;4706;41.844;26.082;2023-02-18T10:01:46;101356.88;;;13.92;60.71
9335;BME280;4706;41.844;26.082;2023-02-18T10:06:44;101374.13;;;14.03;61.29
9335;BME280;4706;41.844;26.082;2023-02-18T10:09:19;101373.69;;;13.96;61.38
9335;BME280;4706;41.844;26.082;2023-02-18T10:11:49;101363.72;;;13.95;61.45
9335;BME280;4706;41.844;26.082;2023-02-18T10:14:15;101370.50;;;14.02;61.29
9335;BME280;4706;41.844;26.082;2023-02-18T10:16:42;101357.31;;;14.13;61.23
9335;BME280;4706;41.844;26.082;2023-02-18T10:19:22;101358.34;;;14.31;61.29
9335;BME280;4706;41.844;26.082;2023-02-18T10:21:51;101354.16;;;14.47;61.19
9335;BME280;4706;41.844;26.082;2023-02-18T10:24:33;101345.34;;;14.59;60.69
9335;BME280;4706;41.844;26.082;2023-02-18T10:26:59;101346.06;;;14.65;60.83
9335;BME280;4706;41.844;26.082;2023-02-18T10:29:25;101337.78;;;14.65;60.70
9335;BME280;4706;41.844;26.082;2023-02-18T10:31:53;101335.41;;;14.58;61.38
9335;BME280;4706;41.844;26.082;2023-02-18T10:36:54;101335.72;;;14.56;61.84
9335;BME280;4706;41.844;26.082;2023-02-18T10:39:35;101328.25;;;14.57;61.66
9335;BME280;4706;41.844;26.082;2023-02-18T10:47:45;101322.06;;;14.74;60.62
9335;BME280;4706;41.844;26.082;2023-02-18T10:50:44;101314.47;;;14.79;59.66
9335;BME280;4706;41.844;26.082;2023-02-18T10:55:51;101295.91;;;14.80;60.28
9335;BME280;4706;41.844;26.082;2023-02-18T10:58:36;101276.63;;;14.75;60.06
9335;BME280;4706;41.844;26.082;2023-02-18T11:01:12;101261.31;;;14.77;61.33
9335;BME280;4706;41.844;26.082;2023-02-18T11:06:16;101251.63;;;14.66;60.40
9335;BME280;4706;41.844;26.082;2023-02-18T11:08:45;101246.03;;;14.80;60.80
9335;BME280;4706;41.844;26.082;2023-02-18T11:11:19;101252.31;;;14.86;61.22
9335;BME280;4706;41.844;26.082;2023-02-18T11:13:51;101246.50;;;14.96;59.74
9335;BME280;4706;41.844;26.082;2023-02-18T11:16:21;101239.91;;;15.05;60.55
9335;BME280;4706;41.844;26.082;2023-02-18T11:18:47;101250.78;;;15.24;58.92
9335;BME280;4706;41.844;26.082;2023-02-18T11:23:50;101234.34;;;15.28;59.07
9335;BME280;4706;41.844;26.082;2023-02-18T11:26:21;101234.97;;;15.25;58.94
9335;BME280;4706;41.844;26.082;2023-02-18T11:28:54;101218.34;;;15.25;57.84
9335;BME280;4706;41.844;26.082;2023-02-18T11:31:25;101227.91;;;15.41;57.43
9335;BME280;4706;41.844;26.082;2023-02-18T11:33:51;101224.91;;;15.60;56.62
9335;BME280;4706;41.844;26.082;2023-02-18T11:36:31;101225.50;;;15.79;55.68
9335;BME280;4706;41.844;26.082;2023-02-18T11:39:03;101223.16;;;16.04;54.06
9335;BME280;4706;41.844;26.082;2023-02-18T11:41:39;101214.72;;;16.26;53.60
9335;BME280;4706;41.844;26.082;2023-02-18T11:44:18;101215.41;;;16.41;53.13
9335;BME280;4706;41.844;26.082;2023-02-18T11:47:04;101199.72;;;16.54;53.74
9335;BME280;4706;41.844;26.082;2023-02-18T11:49:32;101195.00;;;16.63;53.38
9335;BME280;4706;41.844;26.082;2023-02-18T11:52:19;101197.47;;;16.90;52.94
9335;BME280;4706;41.844;26.082;2023-02-18T11:57:45;101191.59;;;16.74;52.28
9335;BME280;4706;41.844;26.082;2023-02-18T12:00:20;101180.13;;;16.67;53.07
9335;BME280;4706;41.844;26.082;2023-02-18T12:02:50;101170.97;;;16.58;53.27
9335;BME280;4706;41.844;26.082;2023-02-18T12:05:24;101158.91;;;16.63;51.94
9335;BME280;4706;41.844;26.082;2023-02-18T12:08:12;101156.78;;;16.60;51.45
9335;BME280;4706;41.844;26.082;2023-02-18T12:10:50;101147.28;;;16.61;51.47
9335;BME280;4706;41.844;26.082;2023-02-18T12:13:52;101132.09;;;16.58;51.14
9335;BME280;4706;41.844;26.082;2023-02-18T12:27:47;101124.75;;;16.71;51.15
9335;BME280;4706;41.844;26.082;2023-02-18T12:41:43;101105.94;;;16.94;50.21
9335;BME280;4706;41.844;26.082;2023-02-18T12:50:17;101102.16;;;17.45;48.79
9335;BME280;4706;41.844;26.082;2023-02-18T13:08:33;101079.06;;;17.83;46.45
9335;BME280;4706;41.844;26.082;2023-02-18T13:11:06;101065.63;;;17.85;46.87
9335;BME280;4706;41.844;26.082;2023-02-18T13:13:49;101067.66;;;17.97;45.81
9335;BME280;4706;41.844;26.082;2023-02-18T13:16:20;101065.69;;;17.98;45.61
9335;BME280;4706;41.844;26.082;2023-02-18T13:21:45;101067.94;;;18.25;45.45
9335;BME280;4706;41.844;26.082;2023-02-18T13:24:20;101063.72;;;18.19;45.22
9335;BME280;4706;41.844;26.082;2023-02-18T13:26:52;101062.00;;;18.27;44.38
9335;BME280;4706;41.844;26.082;2023-02-18T13:29:36;101053.94;;;18.34;44.20
9335;BME280;4706;41.844;26.082;2023-02-18T13:35:57;101045.44;;;18.30;43.68
9335;BME280;4706;41.844;26.082;2023-02-18T13:38:14;101048.91;;;18.27;43.97
9335;BME280;4706;41.844;26.082;2023-02-18T13:40:44;101051.91;;;18.22;43.55
9335;BME280;4706;41.844;26.082;2023-02-18T13:43:30;101052.94;;;18.17;44.57
9335;BME280;4706;41.844;26.082;2023-02-18T13:46:17;101050.16;;;18.17;45.36
9335;BME280;4706;41.844;26.082;2023-02-18T13:48:45;101043.69;;;18.05;45.13
9335;BME280;4706;41.844;26.082;2023-02-18T13:51:31;101031.06;;;17.86;45.54
9335;BME280;4706;41.844;26.082;2023-02-18T13:56:39;101044.72;;;17.79;45.63
9335;BME280;4706;41.844;26.082;2023-02-18T13:59:38;101042.25;;;17.78;46.55
9335;BME280;4706;41.844;26.082;2023-02-18T14:02:29;101041.94;;;17.79;47.45
9335;BME280;4706;41.844;26.082;2023-02-18T14:04:57;101039.31;;;17.74;47.83
9335;BME280;4706;41.844;26.082;2023-02-18T14:07:48;101035.22;;;17.80;46.97
9335;BME280;4706;41.844;26.082;2023-02-18T14:25:50;101036.06;;;17.72;46.97
9335;BME280;4706;41.844;26.082;2023-02-18T14:33:41;101026.47;;;17.61;47.06
9335;BME280;4706;41.844;26.082;2023-02-18T14:36:18;101021.53;;;17.66;47.08
9335;BME280;4706;41.844;26.082;2023-02-18T14:41:27;101016.91;;;17.70;47.07
9335;BME280;4706;41.844;26.082;2023-02-18T14:44:16;101007.47;;;17.63;47.46
9335;BME280;4706;41.844;26.082;2023-02-18T14:47:02;101005.03;;;17.61;46.84
9335;BME280;4706;41.844;26.082;2023-02-18T14:52:33;101011.19;;;17.46;47.19
9335;BME280;4706;41.844;26.082;2023-02-18T14:55:03;101017.06;;;17.44;47.13
9335;BME280;4706;41.844;26.082;2023-02-18T14:57:40;101013.88;;;17.34;47.28
9335;BME280;4706;41.844;26.082;2023-02-18T15:00:21;101014.00;;;17.37;47.60
9335;BME280;4706;41.844;26.082;2023-02-18T15:02:50;101010.41;;;17.37;47.60
9335;BME280;4706;41.844;26.082;2023-02-18T15:05:19;101014.34;;;17.36;46.58
9335;BME280;4706;41.844;26.082;2023-02-18T15:10:21;101006.66;;;17.41;45.93
9335;BME280;4706;41.844;26.082;2023-02-18T15:12:47;101000.38;;;17.44;45.27
9335;BME280;4706;41.844;26.082;2023-02-18T15:15:14;100986.03;;;17.42;45.00
9335;BME280;4706;41.844;26.082;2023-02-18T15:17:44;100990.28;;;17.40;45.06
9335;BME280;4706;41.844;26.082;2023-02-18T15:20:12;101000.75;;;17.43;45.21
9335;BME280;4706;41.844;26.082;2023-02-18T15:22:38;100989.81;;;17.38;44.96
9335;BME280;4706;41.844;26.082;2023-02-18T15:25:05;100981.66;;;17.33;44.89
9335;BME280;4706;41.844;26.082;2023-02-18T15:27:33;100992.25;;;17.39;44.64
9335;BME280;4706;41.844;26.082;2023-02-18T15:30:20;100988.91;;;17.25;45.09
9335;BME280;4706;41.844;26.082;2023-02-18T15:32:51;100991.25;;;17.14;45.38
9335;BME280;4706;41.844;26.082;2023-02-18T15:35:19;100992.44;;;17.05;45.50
9335;BME280;4706;41.844;26.082;2023-02-18T15:37:46;100996.84;;;17.06;45.49
9335;BME280;4706;41.844;26.082;2023-02-18T15:40:16;100994.88;;;17.06;45.64